sensor_id;sensor_type;location;lat;lon;timestamp;P1;durP1;ratioP1;P2;durP2;ratioP2
6638;SDS011;3355;52.882;8.430;2023-11-21T00:00:58;13.37;;;7.90;;
6638;SDS011;3355;52.882;8.430;2023-11-21T00:04:00;16.23;;;8.83;;
6638;SDS011;3355;52.882;8.430;2023-11-21T00:06:26;11.80;;;7.73;;
6638;SDS011;3355;52.882;8.430;2023-11-21T00:08:55;16.17;;;8.80;;
6638;SDS011;3355;52.882;8.430;2023-11-21T00:11:22;23.57;;;9.47;;
6638;SDS011;3355;52.882;8.430;2023-11-21T00:13:51;16.80;;;8.90;;
6638;SDS011;3355;52.882;8.430;2023-11-21T00:16:18;15.80;;;8.50;;
6638;SDS011;3355;52.882;8.430;2023-11-21T00:18:45;15.47;;;8.37;;
6638;SDS011;3355;52.882;8.430;2023-11-21T00:21:12;16.20;;;8.47;;
6638;SDS011;3355;52.882;8.430;2023-11-21T00:23:39;14.13;;;8.30;;
6638;SDS011;3355;52.882;8.430;2023-11-21T00:26:06;12.00;;;8.23;;
6638;SDS011;3355;52.882;8.430;2023-11-21T00:28:33;13.73;;;8.30;;
6638;SDS011;3355;52.882;8.430;2023-11-21T00:31:01;14.43;;;8.77;;
6638;SDS011;3355;52.882;8.430;2023-11-21T00:33:29;18.73;;;9.10;;
6638;SDS011;3355;52.882;8.430;2023-11-21T00:35:55;14.70;;;8.80;;
6638;SDS011;3355;52.882;8.430;2023-11-21T00:38:22;12.20;;;8.47;;
6638;SDS011;3355;52.882;8.430;2023-11-21T00:40:49;13.73;;;8.30;;
6638;SDS011;3355;52.882;8.430;2023-11-21T00:43:16;13.63;;;8.10;;
6638;SDS011;3355;52.882;8.430;2023-11-21T00:45:43;12.33;;;8.13;;
6638;SDS011;3355;52.882;8.430;2023-11-21T00:48:11;15.90;;;9.07;;
6638;SDS011;3355;52.882;8.430;2023-11-21T00:50:38;15.33;;;9.70;;
6638;SDS011;3355;52.882;8.430;2023-11-21T00:53:05;17.27;;;9.23;;
6638;SDS011;3355;52.882;8.430;2023-11-21T00:55:33;19.03;;;9.77;;
6638;SDS011;3355;52.882;8.430;2023-11-21T00:58:00;14.83;;;9.40;;
6638;SDS011;3355;52.882;8.430;2023-11-21T01:00:28;19.17;;;8.80;;
6638;SDS011;3355;52.882;8.430;2023-11-21T01:02:55;15.00;;;9.33;;
6638;SDS011;3355;52.882;8.430;2023-11-21T01:05:23;13.80;;;9.57;;
6638;SDS011;3355;52.882;8.430;2023-11-21T01:07:50;11.60;;;9.00;;
6638;SDS011;3355;52.882;8.430;2023-11-21T01:10:16;17.63;;;9.20;;
6638;SDS011;3355;52.882;8.430;2023-11-21T01:12:43;17.47;;;9.40;;
6638;SDS011;3355;52.882;8.430;2023-11-21T01:15:10;12.37;;;8.47;;
6638;SDS011;3355;52.882;8.430;2023-11-21T01:17:40;12.73;;;8.50;;
6638;SDS011;3355;52.882;8.430;2023-11-21T01:20:08;17.77;;;11.67;;
6638;SDS011;3355;52.882;8.430;2023-11-21T01:22:38;15.07;;;9.53;;
6638;SDS011;3355;52.882;8.430;2023-11-21T01:25:05;15.23;;;9.27;;
6638;SDS011;3355;52.882;8.430;2023-11-21T01:27:32;17.60;;;9.50;;
6638;SDS011;3355;52.882;8.430;2023-11-21T01:30:00;14.33;;;9.73;;
6638;SDS011;3355;52.882;8.430;2023-11-21T01:32:27;17.37;;;8.97;;
6638;SDS011;3355;52.882;8.430;2023-11-21T01:34:54;13.43;;;8.17;;
6638;SDS011;3355;52.882;8.430;2023-11-21T01:37:21;17.27;;;10.23;;
6638;SDS011;3355;52.882;8.430;2023-11-21T01:39:49;14.50;;;9.87;;
6638;SDS011;3355;52.882;8.430;2023-11-21T01:42:15;17.63;;;10.07;;
6638;SDS011;3355;52.882;8.430;2023-11-21T01:44:43;23.30;;;10.77;;
6638;SDS011;3355;52.882;8.430;2023-11-21T01:47:11;13.30;;;9.13;;
6638;SDS011;3355;52.882;8.430;2023-11-21T01:49:38;14.17;;;9.00;;
6638;SDS011;3355;52.882;8.430;2023-11-21T01:52:10;12.90;;;9.80;;
6638;SDS011;3355;52.882;8.430;2023-11-21T01:54:37;16.40;;;9.67;;
6638;SDS011;3355;52.882;8.430;2023-11-21T01:57:07;15.50;;;11.03;;
6638;SDS011;3355;52.882;8.430;2023-11-21T01:59:34;16.60;;;10.00;;
6638;SDS011;3355;52.882;8.430;2023-11-21T02:02:02;14.47;;;10.13;;
6638;SDS011;3355;52.882;8.430;2023-11-21T02:04:29;14.93;;;10.23;;
6638;SDS011;3355;52.882;8.430;2023-11-21T02:06:56;21.07;;;10.50;;
6638;SDS011;3355;52.882;8.430;2023-11-21T02:09:24;15.10;;;10.37;;
6638;SDS011;3355;52.882;8.430;2023-11-21T02:11:52;16.93;;;9.80;;
6638;SDS011;3355;52.882;8.430;2023-11-21T02:14:20;21.00;;;10.70;;
6638;SDS011;3355;52.882;8.430;2023-11-21T02:16:47;19.10;;;10.00;;
6638;SDS011;3355;52.882;8.430;2023-11-21T02:19:14;21.80;;;11.10;;
6638;SDS011;3355;52.882;8.430;2023-11-21T02:21:45;16.83;;;11.20;;
6638;SDS011;3355;52.882;8.430;2023-11-21T02:24:14;17.93;;;11.30;;
6638;SDS011;3355;52.882;8.430;2023-11-21T02:26:42;24.07;;;12.00;;
6638;SDS011;3355;52.882;8.430;2023-11-21T02:29:09;26.10;;;11.67;;
6638;SDS011;3355;52.882;8.430;2023-11-21T02:31:37;18.97;;;10.30;;
6638;SDS011;3355;52.882;8.430;2023-11-21T02:34:12;20.60;;;11.47;;
6638;SDS011;3355;52.882;8.430;2023-11-21T02:36:39;21.87;;;11.73;;
6638;SDS011;3355;52.882;8.430;2023-11-21T02:39:07;15.10;;;10.73;;
6638;SDS011;3355;52.882;8.430;2023-11-21T02:41:35;20.07;;;11.67;;
6638;SDS011;3355;52.882;8.430;2023-11-21T02:44:03;16.50;;;10.33;;
6638;SDS011;3355;52.882;8.430;2023-11-21T02:46:31;16.20;;;10.40;;
6638;SDS011;3355;52.882;8.430;2023-11-21T02:48:58;21.17;;;10.80;;
6638;SDS011;3355;52.882;8.430;2023-11-21T02:51:25;20.80;;;11.93;;
6638;SDS011;3355;52.882;8.430;2023-11-21T02:53:52;15.17;;;10.70;;
6638;SDS011;3355;52.882;8.430;2023-11-21T02:56:19;23.60;;;10.60;;
6638;SDS011;3355;52.882;8.430;2023-11-21T02:58:47;17.70;;;11.43;;
6638;SDS011;3355;52.882;8.430;2023-11-21T03:01:14;15.97;;;9.97;;
6638;SDS011;3355;52.882;8.430;2023-11-21T03:03:42;16.17;;;11.33;;
6638;SDS011;3355;52.882;8.430;2023-11-21T03:06:08;14.27;;;9.37;;
6638;SDS011;3355;52.882;8.430;2023-11-21T03:08:35;20.57;;;11.57;;
6638;SDS011;3355;52.882;8.430;2023-11-21T03:11:02;16.73;;;10.53;;
6638;SDS011;3355;52.882;8.430;2023-11-21T03:13:29;18.67;;;10.50;;
6638;SDS011;3355;52.882;8.430;2023-11-21T03:15:58;14.73;;;10.90;;
6638;SDS011;3355;52.882;8.430;2023-11-21T03:18:24;13.93;;;10.17;;
6638;SDS011;3355;52.882;8.430;2023-11-21T03:20:51;19.90;;;12.73;;
6638;SDS011;3355;52.882;8.430;2023-11-21T03:23:19;18.50;;;12.50;;
6638;SDS011;3355;52.882;8.430;2023-11-21T03:25:45;18.27;;;11.80;;
6638;SDS011;3355;52.882;8.430;2023-11-21T03:28:14;21.70;;;13.70;;
6638;SDS011;3355;52.882;8.430;2023-11-21T03:30:40;17.60;;;11.03;;
6638;SDS011;3355;52.882;8.430;2023-11-21T03:33:08;18.97;;;12.33;;
6638;SDS011;3355;52.882;8.430;2023-11-21T03:35:35;18.17;;;12.20;;
6638;SDS011;3355;52.882;8.430;2023-11-21T03:38:02;18.93;;;12.90;;
6638;SDS011;3355;52.882;8.430;2023-11-21T03:40:29;16.70;;;12.20;;
6638;SDS011;3355;52.882;8.430;2023-11-21T03:42:56;15.77;;;11.03;;
6638;SDS011;3355;52.882;8.430;2023-11-21T03:45:23;15.70;;;11.17;;
6638;SDS011;3355;52.882;8.430;2023-11-21T03:47:50;22.77;;;11.70;;
6638;SDS011;3355;52.882;8.430;2023-11-21T03:50:20;18.13;;;11.47;;
6638;SDS011;3355;52.882;8.430;2023-11-21T03:52:46;15.67;;;10.30;;
6638;SDS011;3355;52.882;8.430;2023-11-21T03:55:13;20.73;;;11.30;;
6638;SDS011;3355;52.882;8.430;2023-11-21T03:57:40;17.17;;;11.33;;
6638;SDS011;3355;52.882;8.430;2023-11-21T04:00:07;18.00;;;11.23;;
6638;SDS011;3355;52.882;8.430;2023-11-21T04:02:35;15.73;;;11.33;;
6638;SDS011;3355;52.882;8.430;2023-11-21T04:05:02;23.47;;;12.20;;
6638;SDS011;3355;52.882;8.430;2023-11-21T04:07:31;16.87;;;11.60;;
6638;SDS011;3355;52.882;8.430;2023-11-21T04:09:57;16.10;;;12.40;;
6638;SDS011;3355;52.882;8.430;2023-11-21T04:12:24;17.00;;;11.60;;
6638;SDS011;3355;52.882;8.430;2023-11-21T04:14:51;15.23;;;10.70;;
6638;SDS011;3355;52.882;8.430;2023-11-21T04:17:19;16.93;;;11.60;;
6638;SDS011;3355;52.882;8.430;2023-11-21T04:19:46;18.47;;;11.20;;
6638;SDS011;3355;52.882;8.430;2023-11-21T04:22:14;19.90;;;11.57;;
6638;SDS011;3355;52.882;8.430;2023-11-21T04:24:42;17.00;;;11.20;;
6638;SDS011;3355;52.882;8.430;2023-11-21T04:27:09;18.10;;;11.90;;
6638;SDS011;3355;52.882;8.430;2023-11-21T04:29:36;18.80;;;11.27;;
6638;SDS011;3355;52.882;8.430;2023-11-21T04:32:03;16.27;;;10.90;;
6638;SDS011;3355;52.882;8.430;2023-11-21T04:34:30;18.50;;;13.10;;
6638;SDS011;3355;52.882;8.430;2023-11-21T04:36:57;20.37;;;11.90;;
6638;SDS011;3355;52.882;8.430;2023-11-21T04:39:25;19.23;;;12.63;;
6638;SDS011;3355;52.882;8.430;2023-11-21T04:41:53;17.20;;;12.23;;
6638;SDS011;3355;52.882;8.430;2023-11-21T04:44:20;20.80;;;12.80;;
6638;SDS011;3355;52.882;8.430;2023-11-21T04:46:46;22.10;;;12.60;;
6638;SDS011;3355;52.882;8.430;2023-11-21T04:49:13;18.13;;;12.23;;
6638;SDS011;3355;52.882;8.430;2023-11-21T04:51:40;27.70;;;11.40;;
6638;SDS011;3355;52.882;8.430;2023-11-21T04:54:08;20.63;;;13.27;;
6638;SDS011;3355;52.882;8.430;2023-11-21T04:56:35;17.00;;;11.60;;
6638;SDS011;3355;52.882;8.430;2023-11-21T04:59:03;17.80;;;11.20;;
6638;SDS011;3355;52.882;8.430;2023-11-21T05:01:30;18.93;;;11.77;;
6638;SDS011;3355;52.882;8.430;2023-11-21T05:03:57;17.47;;;11.37;;
6638;SDS011;3355;52.882;8.430;2023-11-21T05:06:24;17.70;;;11.57;;
6638;SDS011;3355;52.882;8.430;2023-11-21T05:08:50;18.60;;;11.07;;
6638;SDS011;3355;52.882;8.430;2023-11-21T05:11:24;19.70;;;11.43;;
6638;SDS011;3355;52.882;8.430;2023-11-21T05:13:51;20.20;;;11.27;;
6638;SDS011;3355;52.882;8.430;2023-11-21T05:16:19;20.60;;;13.20;;
6638;SDS011;3355;52.882;8.430;2023-11-21T05:18:46;25.30;;;14.40;;
6638;SDS011;3355;52.882;8.430;2023-11-21T05:21:15;24.00;;;15.50;;
6638;SDS011;3355;52.882;8.430;2023-11-21T05:23:42;23.57;;;13.77;;
6638;SDS011;3355;52.882;8.430;2023-11-21T05:26:08;25.53;;;14.87;;
6638;SDS011;3355;52.882;8.430;2023-11-21T05:28:35;23.80;;;14.10;;
6638;SDS011;3355;52.882;8.430;2023-11-21T05:31:02;23.80;;;12.57;;
6638;SDS011;3355;52.882;8.430;2023-11-21T05:33:30;23.70;;;13.40;;
6638;SDS011;3355;52.882;8.430;2023-11-21T05:35:58;21.90;;;12.80;;
6638;SDS011;3355;52.882;8.430;2023-11-21T05:38:25;18.83;;;12.83;;
6638;SDS011;3355;52.882;8.430;2023-11-21T05:40:51;18.57;;;12.90;;
6638;SDS011;3355;52.882;8.430;2023-11-21T05:43:18;22.57;;;13.80;;
6638;SDS011;3355;52.882;8.430;2023-11-21T05:45:45;22.87;;;13.50;;
6638;SDS011;3355;52.882;8.430;2023-11-21T05:48:11;24.90;;;13.67;;
6638;SDS011;3355;52.882;8.430;2023-11-21T05:50:39;18.70;;;12.87;;
6638;SDS011;3355;52.882;8.430;2023-11-21T05:53:07;21.10;;;13.00;;
6638;SDS011;3355;52.882;8.430;2023-11-21T05:55:36;21.57;;;12.40;;
6638;SDS011;3355;52.882;8.430;2023-11-21T05:58:04;17.50;;;12.90;;
6638;SDS011;3355;52.882;8.430;2023-11-21T06:00:31;20.80;;;12.83;;
6638;SDS011;3355;52.882;8.430;2023-11-21T06:02:58;21.30;;;14.87;;
6638;SDS011;3355;52.882;8.430;2023-11-21T06:05:25;20.00;;;13.10;;
6638;SDS011;3355;52.882;8.430;2023-11-21T06:07:54;22.57;;;13.63;;
6638;SDS011;3355;52.882;8.430;2023-11-21T06:10:23;18.10;;;12.00;;
6638;SDS011;3355;52.882;8.430;2023-11-21T06:12:50;19.10;;;13.83;;
6638;SDS011;3355;52.882;8.430;2023-11-21T06:15:18;17.70;;;11.73;;
6638;SDS011;3355;52.882;8.430;2023-11-21T06:17:47;18.63;;;12.40;;
6638;SDS011;3355;52.882;8.430;2023-11-21T06:20:17;19.03;;;10.77;;
6638;SDS011;3355;52.882;8.430;2023-11-21T06:22:45;12.57;;;9.00;;
6638;SDS011;3355;52.882;8.430;2023-11-21T06:25:15;12.40;;;8.90;;
6638;SDS011;3355;52.882;8.430;2023-11-21T06:27:43;11.50;;;9.07;;
6638;SDS011;3355;52.882;8.430;2023-11-21T06:30:10;13.47;;;9.40;;
6638;SDS011;3355;52.882;8.430;2023-11-21T06:32:39;12.00;;;9.07;;
6638;SDS011;3355;52.882;8.430;2023-11-21T06:35:06;12.70;;;8.60;;
6638;SDS011;3355;52.882;8.430;2023-11-21T06:37:35;12.70;;;9.57;;
6638;SDS011;3355;52.882;8.430;2023-11-21T06:40:01;15.40;;;10.07;;
6638;SDS011;3355;52.882;8.430;2023-11-21T06:42:30;13.00;;;8.83;;
6638;SDS011;3355;52.882;8.430;2023-11-21T06:44:58;11.27;;;8.50;;
6638;SDS011;3355;52.882;8.430;2023-11-21T06:47:28;12.40;;;8.70;;
6638;SDS011;3355;52.882;8.430;2023-11-21T06:49:56;13.07;;;9.43;;
6638;SDS011;3355;52.882;8.430;2023-11-21T06:52:22;11.40;;;7.77;;
6638;SDS011;3355;52.882;8.430;2023-11-21T06:54:49;14.20;;;9.23;;
6638;SDS011;3355;52.882;8.430;2023-11-21T06:57:16;12.20;;;8.60;;
6638;SDS011;3355;52.882;8.430;2023-11-21T06:59:44;12.00;;;8.90;;
6638;SDS011;3355;52.882;8.430;2023-11-21T07:02:10;11.27;;;8.40;;
6638;SDS011;3355;52.882;8.430;2023-11-21T07:04:37;12.43;;;9.50;;
6638;SDS011;3355;52.882;8.430;2023-11-21T07:07:04;11.60;;;8.37;;
6638;SDS011;3355;52.882;8.430;2023-11-21T07:09:32;12.53;;;8.87;;
6638;SDS011;3355;52.882;8.430;2023-11-21T07:11:58;10.93;;;8.33;;
6638;SDS011;3355;52.882;8.430;2023-11-21T07:14:28;14.73;;;9.60;;
6638;SDS011;3355;52.882;8.430;2023-11-21T07:16:59;12.43;;;8.00;;
6638;SDS011;3355;52.882;8.430;2023-11-21T07:19:26;10.60;;;8.90;;
6638;SDS011;3355;52.882;8.430;2023-11-21T07:21:54;10.40;;;7.70;;
6638;SDS011;3355;52.882;8.430;2023-11-21T07:24:21;10.67;;;8.47;;
6638;SDS011;3355;52.882;8.430;2023-11-21T07:26:48;10.47;;;7.27;;
6638;SDS011;3355;52.882;8.430;2023-11-21T07:29:14;11.00;;;7.47;;
6638;SDS011;3355;52.882;8.430;2023-11-21T07:31:41;7.97;;;6.23;;
6638;SDS011;3355;52.882;8.430;2023-11-21T07:34:09;9.30;;;6.70;;
6638;SDS011;3355;52.882;8.430;2023-11-21T07:36:37;8.40;;;6.30;;
6638;SDS011;3355;52.882;8.430;2023-11-21T07:39:05;8.40;;;7.50;;
6638;SDS011;3355;52.882;8.430;2023-11-21T07:41:32;10.17;;;6.33;;
6638;SDS011;3355;52.882;8.430;2023-11-21T07:43:59;7.50;;;6.30;;
6638;SDS011;3355;52.882;8.430;2023-11-21T07:46:26;8.83;;;6.57;;
6638;SDS011;3355;52.882;8.430;2023-11-21T07:48:52;8.73;;;6.23;;
6638;SDS011;3355;52.882;8.430;2023-11-21T07:51:21;7.03;;;6.20;;
6638;SDS011;3355;52.882;8.430;2023-11-21T07:53:48;8.43;;;6.20;;
6638;SDS011;3355;52.882;8.430;2023-11-21T07:56:15;7.70;;;6.23;;
6638;SDS011;3355;52.882;8.430;2023-11-21T07:58:42;9.70;;;6.80;;
6638;SDS011;3355;52.882;8.430;2023-11-21T08:01:10;9.83;;;6.70;;
6638;SDS011;3355;52.882;8.430;2023-11-21T08:03:37;9.00;;;6.90;;
6638;SDS011;3355;52.882;8.430;2023-11-21T08:06:04;6.33;;;5.30;;
6638;SDS011;3355;52.882;8.430;2023-11-21T08:08:32;8.80;;;6.97;;
6638;SDS011;3355;52.882;8.430;2023-11-21T08:10:59;7.33;;;6.03;;
6638;SDS011;3355;52.882;8.430;2023-11-21T08:13:27;9.23;;;6.60;;
6638;SDS011;3355;52.882;8.430;2023-11-21T08:15:55;7.67;;;6.57;;
6638;SDS011;3355;52.882;8.430;2023-11-21T08:18:26;7.47;;;6.50;;
6638;SDS011;3355;52.882;8.430;2023-11-21T08:20:53;8.33;;;6.80;;
6638;SDS011;3355;52.882;8.430;2023-11-21T08:23:20;9.10;;;6.70;;
6638;SDS011;3355;52.882;8.430;2023-11-21T08:25:51;8.57;;;6.37;;
6638;SDS011;3355;52.882;8.430;2023-11-21T08:28:20;8.43;;;6.80;;
6638;SDS011;3355;52.882;8.430;2023-11-21T08:30:48;10.30;;;6.80;;
6638;SDS011;3355;52.882;8.430;2023-11-21T08:33:15;8.87;;;6.43;;
6638;SDS011;3355;52.882;8.430;2023-11-21T08:35:41;8.60;;;7.10;;
6638;SDS011;3355;52.882;8.430;2023-11-21T08:38:08;9.17;;;6.60;;
6638;SDS011;3355;52.882;8.430;2023-11-21T08:40:36;8.10;;;6.00;;
6638;SDS011;3355;52.882;8.430;2023-11-21T08:43:04;10.60;;;6.77;;
6638;SDS011;3355;52.882;8.430;2023-11-21T08:45:30;7.40;;;5.53;;
6638;SDS011;3355;52.882;8.430;2023-11-21T08:47:59;7.13;;;5.57;;
6638;SDS011;3355;52.882;8.430;2023-11-21T08:50:26;8.20;;;6.60;;
6638;SDS011;3355;52.882;8.430;2023-11-21T08:52:53;7.07;;;5.80;;
6638;SDS011;3355;52.882;8.430;2023-11-21T08:55:20;8.73;;;6.50;;
6638;SDS011;3355;52.882;8.430;2023-11-21T08:57:47;7.87;;;6.30;;
6638;SDS011;3355;52.882;8.430;2023-11-21T09:00:16;9.50;;;7.00;;
6638;SDS011;3355;52.882;8.430;2023-11-21T09:02:43;7.67;;;6.40;;
6638;SDS011;3355;52.882;8.430;2023-11-21T09:05:12;7.60;;;6.07;;
6638;SDS011;3355;52.882;8.430;2023-11-21T09:07:40;8.30;;;6.10;;
6638;SDS011;3355;52.882;8.430;2023-11-21T09:10:07;7.43;;;6.03;;
6638;SDS011;3355;52.882;8.430;2023-11-21T09:12:34;7.57;;;6.17;;
6638;SDS011;3355;52.882;8.430;2023-11-21T09:15:03;7.00;;;6.00;;
6638;SDS011;3355;52.882;8.430;2023-11-21T09:17:32;7.67;;;6.03;;
6638;SDS011;3355;52.882;8.430;2023-11-21T09:20:00;8.90;;;6.20;;
6638;SDS011;3355;52.882;8.430;2023-11-21T09:22:30;8.20;;;5.73;;
6638;SDS011;3355;52.882;8.430;2023-11-21T09:24:57;7.93;;;5.57;;
6638;SDS011;3355;52.882;8.430;2023-11-21T09:27:24;6.70;;;5.67;;
6638;SDS011;3355;52.882;8.430;2023-11-21T09:35:10;6.93;;;5.40;;
6638;SDS011;3355;52.882;8.430;2023-11-21T09:37:44;8.07;;;5.90;;
6638;SDS011;3355;52.882;8.430;2023-11-21T09:40:17;6.70;;;5.50;;
6638;SDS011;3355;52.882;8.430;2023-11-21T09:42:54;8.10;;;6.47;;
6638;SDS011;3355;52.882;8.430;2023-11-21T09:45:34;8.63;;;6.27;;
6638;SDS011;3355;52.882;8.430;2023-11-21T09:48:05;7.20;;;5.47;;
6638;SDS011;3355;52.882;8.430;2023-11-21T09:50:33;9.47;;;6.40;;
6638;SDS011;3355;52.882;8.430;2023-11-21T09:53:06;6.30;;;5.57;;
6638;SDS011;3355;52.882;8.430;2023-11-21T09:55:39;6.40;;;4.93;;
6638;SDS011;3355;52.882;8.430;2023-11-21T09:58:09;9.37;;;6.00;;
6638;SDS011;3355;52.882;8.430;2023-11-21T10:00:37;7.10;;;5.30;;
6638;SDS011;3355;52.882;8.430;2023-11-21T10:03:12;7.73;;;6.07;;
6638;SDS011;3355;52.882;8.430;2023-11-21T10:05:43;7.17;;;5.90;;
6638;SDS011;3355;52.882;8.430;2023-11-21T10:08:13;8.20;;;6.30;;
6638;SDS011;3355;52.882;8.430;2023-11-21T10:10:43;8.63;;;4.97;;
6638;SDS011;3355;52.882;8.430;2023-11-21T10:13:15;6.70;;;5.20;;
6638;SDS011;3355;52.882;8.430;2023-11-21T10:15:58;5.57;;;4.77;;
6638;SDS011;3355;52.882;8.430;2023-11-21T10:18:33;5.70;;;4.40;;
6638;SDS011;3355;52.882;8.430;2023-11-21T10:21:14;6.60;;;5.03;;
6638;SDS011;3355;52.882;8.430;2023-11-21T10:23:45;5.80;;;5.10;;
6638;SDS011;3355;52.882;8.430;2023-11-21T10:26:20;6.83;;;5.93;;
6638;SDS011;3355;52.882;8.430;2023-11-21T10:28:57;6.23;;;5.10;;
6638;SDS011;3355;52.882;8.430;2023-11-21T10:31:28;8.33;;;5.80;;
6638;SDS011;3355;52.882;8.430;2023-11-21T10:34:15;6.10;;;4.90;;
6638;SDS011;3355;52.882;8.430;2023-11-21T10:36:52;6.60;;;5.50;;
6638;SDS011;3355;52.882;8.430;2023-11-21T10:39:27;6.27;;;5.60;;
6638;SDS011;3355;52.882;8.430;2023-11-21T10:42:00;7.50;;;6.03;;
6638;SDS011;3355;52.882;8.430;2023-11-21T10:44:37;7.03;;;6.10;;
6638;SDS011;3355;52.882;8.430;2023-11-21T10:47:08;6.37;;;5.40;;
6638;SDS011;3355;52.882;8.430;2023-11-21T10:49:42;6.90;;;5.63;;
6638;SDS011;3355;52.882;8.430;2023-11-21T10:52:15;7.53;;;5.60;;
6638;SDS011;3355;52.882;8.430;2023-11-21T10:54:48;8.87;;;5.87;;
6638;SDS011;3355;52.882;8.430;2023-11-21T10:57:28;7.87;;;6.00;;
6638;SDS011;3355;52.882;8.430;2023-11-21T10:59:59;7.90;;;5.60;;
6638;SDS011;3355;52.882;8.430;2023-11-21T11:02:38;6.93;;;5.73;;
6638;SDS011;3355;52.882;8.430;2023-11-21T11:05:06;7.87;;;6.20;;
6638;SDS011;3355;52.882;8.430;2023-11-21T11:07:36;8.47;;;6.50;;
6638;SDS011;3355;52.882;8.430;2023-11-21T11:10:17;6.67;;;5.30;;
6638;SDS011;3355;52.882;8.430;2023-11-21T11:13:13;5.90;;;4.90;;
6638;SDS011;3355;52.882;8.430;2023-11-21T11:15:57;7.03;;;5.87;;
6638;SDS011;3355;52.882;8.430;2023-11-21T11:18:34;6.63;;;5.17;;
6638;SDS011;3355;52.882;8.430;2023-11-21T11:21:24;6.87;;;6.17;;
6638;SDS011;3355;52.882;8.430;2023-11-21T11:26:57;6.63;;;5.60;;
6638;SDS011;3355;52.882;8.430;2023-11-21T11:29:39;5.83;;;5.23;;
6638;SDS011;3355;52.882;8.430;2023-11-21T11:32:19;7.60;;;5.10;;
6638;SDS011;3355;52.882;8.430;2023-11-21T11:34:56;5.80;;;5.20;;
6638;SDS011;3355;52.882;8.430;2023-11-21T11:37:28;6.33;;;5.63;;
6638;SDS011;3355;52.882;8.430;2023-11-21T11:39:58;6.20;;;5.30;;
6638;SDS011;3355;52.882;8.430;2023-11-21T11:42:26;6.80;;;5.53;;
6638;SDS011;3355;52.882;8.430;2023-11-21T11:44:54;6.60;;;5.60;;
6638;SDS011;3355;52.882;8.430;2023-11-21T11:47:34;7.17;;;4.77;;
6638;SDS011;3355;52.882;8.430;2023-11-21T11:50:05;6.40;;;5.07;;
6638;SDS011;3355;52.882;8.430;2023-11-21T11:52:40;6.83;;;5.40;;
6638;SDS011;3355;52.882;8.430;2023-11-21T11:55:08;6.50;;;5.70;;
6638;SDS011;3355;52.882;8.430;2023-11-21T11:57:40;9.07;;;5.67;;
6638;SDS011;3355;52.882;8.430;2023-11-21T12:00:08;5.50;;;5.00;;
6638;SDS011;3355;52.882;8.430;2023-11-21T12:02:51;7.27;;;6.00;;
6638;SDS011;3355;52.882;8.430;2023-11-21T12:05:22;5.63;;;4.53;;
6638;SDS011;3355;52.882;8.430;2023-11-21T12:07:55;5.90;;;5.27;;
6638;SDS011;3355;52.882;8.430;2023-11-21T12:10:24;4.87;;;4.40;;
6638;SDS011;3355;52.882;8.430;2023-11-21T12:13:15;7.30;;;5.60;;
6638;SDS011;3355;52.882;8.430;2023-11-21T12:15:42;7.90;;;6.33;;
6638;SDS011;3355;52.882;8.430;2023-11-21T12:18:14;7.40;;;5.93;;
6638;SDS011;3355;52.882;8.430;2023-11-21T12:20:41;6.03;;;5.30;;
6638;SDS011;3355;52.882;8.430;2023-11-21T12:23:16;6.50;;;5.73;;
6638;SDS011;3355;52.882;8.430;2023-11-21T12:25:46;7.73;;;6.10;;
6638;SDS011;3355;52.882;8.430;2023-11-21T12:28:12;6.80;;;5.73;;
6638;SDS011;3355;52.882;8.430;2023-11-21T12:30:54;6.03;;;5.40;;
6638;SDS011;3355;52.882;8.430;2023-11-21T12:33:31;7.10;;;4.90;;
6638;SDS011;3355;52.882;8.430;2023-11-21T12:36:04;7.70;;;5.80;;
6638;SDS011;3355;52.882;8.430;2023-11-21T12:38:39;6.53;;;5.40;;
6638;SDS011;3355;52.882;8.430;2023-11-21T12:41:16;6.30;;;5.53;;
6638;SDS011;3355;52.882;8.430;2023-11-21T12:43:48;7.10;;;5.67;;
6638;SDS011;3355;52.882;8.430;2023-11-21T12:46:24;6.73;;;4.90;;
6638;SDS011;3355;52.882;8.430;2023-11-21T12:49:05;7.70;;;6.43;;
6638;SDS011;3355;52.882;8.430;2023-11-21T12:51:38;9.30;;;4.90;;
6638;SDS011;3355;52.882;8.430;2023-11-21T12:54:07;6.73;;;5.40;;
6638;SDS011;3355;52.882;8.430;2023-11-21T12:56:38;6.00;;;4.90;;
6638;SDS011;3355;52.882;8.430;2023-11-21T12:59:05;7.37;;;5.50;;
6638;SDS011;3355;52.882;8.430;2023-11-21T13:01:34;6.70;;;6.03;;
6638;SDS011;3355;52.882;8.430;2023-11-21T13:04:03;7.10;;;5.50;;
6638;SDS011;3355;52.882;8.430;2023-11-21T13:06:37;7.10;;;5.57;;
6638;SDS011;3355;52.882;8.430;2023-11-21T13:11:59;6.20;;;5.47;;
6638;SDS011;3355;52.882;8.430;2023-11-21T13:14:36;7.57;;;6.47;;
6638;SDS011;3355;52.882;8.430;2023-11-21T13:17:04;9.63;;;5.83;;
6638;SDS011;3355;52.882;8.430;2023-11-21T13:19:34;7.77;;;6.40;;
6638;SDS011;3355;52.882;8.430;2023-11-21T13:22:09;7.40;;;6.23;;
6638;SDS011;3355;52.882;8.430;2023-11-21T13:24:40;6.40;;;5.70;;
6638;SDS011;3355;52.882;8.430;2023-11-21T13:27:15;6.20;;;5.03;;
6638;SDS011;3355;52.882;8.430;2023-11-21T13:29:45;6.33;;;5.20;;
6638;SDS011;3355;52.882;8.430;2023-11-21T13:32:28;8.67;;;5.17;;
6638;SDS011;3355;52.882;8.430;2023-11-21T13:35:00;7.00;;;4.50;;
6638;SDS011;3355;52.882;8.430;2023-11-21T13:37:40;6.00;;;4.67;;
6638;SDS011;3355;52.882;8.430;2023-11-21T13:40:15;6.43;;;5.30;;
6638;SDS011;3355;52.882;8.430;2023-11-21T13:42:56;7.87;;;4.80;;
6638;SDS011;3355;52.882;8.430;2023-11-21T13:45:24;6.70;;;5.70;;
6638;SDS011;3355;52.882;8.430;2023-11-21T13:47:55;7.10;;;5.47;;
6638;SDS011;3355;52.882;8.430;2023-11-21T13:50:26;5.93;;;5.33;;
6638;SDS011;3355;52.882;8.430;2023-11-21T13:53:04;5.87;;;4.57;;
6638;SDS011;3355;52.882;8.430;2023-11-21T13:55:45;5.43;;;4.33;;
6638;SDS011;3355;52.882;8.430;2023-11-21T13:58:15;4.90;;;4.07;;
6638;SDS011;3355;52.882;8.430;2023-11-21T14:00:57;4.77;;;3.77;;
6638;SDS011;3355;52.882;8.430;2023-11-21T14:03:38;6.40;;;3.77;;
6638;SDS011;3355;52.882;8.430;2023-11-21T14:06:16;4.10;;;3.03;;
6638;SDS011;3355;52.882;8.430;2023-11-21T14:08:57;2.77;;;2.30;;
6638;SDS011;3355;52.882;8.430;2023-11-21T14:11:27;5.17;;;3.97;;
6638;SDS011;3355;52.882;8.430;2023-11-21T14:13:53;5.47;;;3.63;;
6638;SDS011;3355;52.882;8.430;2023-11-21T14:16:27;4.03;;;3.20;;
6638;SDS011;3355;52.882;8.430;2023-11-21T14:18:53;4.67;;;3.87;;
6638;SDS011;3355;52.882;8.430;2023-11-21T14:21:26;4.67;;;3.90;;
6638;SDS011;3355;52.882;8.430;2023-11-21T14:23:55;5.70;;;4.07;;
6638;SDS011;3355;52.882;8.430;2023-11-21T14:26:23;4.57;;;3.87;;
6638;SDS011;3355;52.882;8.430;2023-11-21T14:28:55;6.80;;;4.50;;
6638;SDS011;3355;52.882;8.430;2023-11-21T14:31:25;5.90;;;4.20;;
6638;SDS011;3355;52.882;8.430;2023-11-21T14:33:57;3.90;;;3.47;;
6638;SDS011;3355;52.882;8.430;2023-11-21T14:36:26;5.30;;;3.67;;
6638;SDS011;3355;52.882;8.430;2023-11-21T14:38:53;3.87;;;3.30;;
6638;SDS011;3355;52.882;8.430;2023-11-21T14:41:19;4.43;;;3.50;;
6638;SDS011;3355;52.882;8.430;2023-11-21T14:43:46;4.23;;;3.83;;
6638;SDS011;3355;52.882;8.430;2023-11-21T14:46:16;4.70;;;3.43;;
6638;SDS011;3355;52.882;8.430;2023-11-21T14:48:45;5.30;;;3.63;;
6638;SDS011;3355;52.882;8.430;2023-11-21T14:51:27;3.37;;;2.70;;
6638;SDS011;3355;52.882;8.430;2023-11-21T14:54:20;6.10;;;3.43;;
6638;SDS011;3355;52.882;8.430;2023-11-21T14:57:05;3.70;;;2.90;;
6638;SDS011;3355;52.882;8.430;2023-11-21T14:59:44;3.80;;;2.90;;
6638;SDS011;3355;52.882;8.430;2023-11-21T15:02:19;3.40;;;2.20;;
6638;SDS011;3355;52.882;8.430;2023-11-21T15:05:17;3.73;;;2.30;;
6638;SDS011;3355;52.882;8.430;2023-11-21T15:07:49;3.13;;;2.10;;
6638;SDS011;3355;52.882;8.430;2023-11-21T15:10:38;3.70;;;2.53;;
6638;SDS011;3355;52.882;8.430;2023-11-21T15:13:14;3.07;;;2.47;;
6638;SDS011;3355;52.882;8.430;2023-11-21T15:15:43;4.67;;;3.20;;
6638;SDS011;3355;52.882;8.430;2023-11-21T15:18:27;3.33;;;2.40;;
6638;SDS011;3355;52.882;8.430;2023-11-21T15:20:57;3.70;;;2.83;;
6638;SDS011;3355;52.882;8.430;2023-11-21T15:23:29;3.50;;;3.10;;
6638;SDS011;3355;52.882;8.430;2023-11-21T15:26:02;3.40;;;2.73;;
6638;SDS011;3355;52.882;8.430;2023-11-21T15:28:32;3.20;;;2.90;;
6638;SDS011;3355;52.882;8.430;2023-11-21T15:31:03;4.00;;;3.03;;
6638;SDS011;3355;52.882;8.430;2023-11-21T15:33:40;3.77;;;3.37;;